sensor_id;sensor_type;location;lat;lon;timestamp;temperature;humidity
14397;DHT22;50653;47.810;13.022;2023-02-24T00:02:02;8.70;98.70
14397;DHT22;50653;47.810;13.022;2023-02-24T00:04:35;8.80;98.60
14397;DHT22;50653;47.810;13.022;2023-02-24T00:07:03;8.60;98.90
14397;DHT22;50653;47.810;13.022;2023-02-24T00:09:30;8.40;99.50
14397;DHT22;50653;47.810;13.022;2023-02-24T00:12:01;8.30;99.70
14397;DHT22;50653;47.810;13.022;2023-02-24T00:14:33;8.40;99.80
14397;DHT22;50653;47.810;13.022;2023-02-24T00:16:59;8.50;99.50
14397;DHT22;50653;47.810;13.022;2023-02-24T00:19:27;8.60;99.30
14397;DHT22;50653;47.810;13.022;2023-02-24T00:21:53;8.50;99.10
14397;DHT22;50653;47.810;13.022;2023-02-24T00:24:20;8.30;99.40
14397;DHT22;50653;47.810;13.022;2023-02-24T00:26:54;8.40;99.70
14397;DHT22;50653;47.810;13.022;2023-02-24T00:29:22;8.30;99.90
14397;DHT22;50653;47.810;13.022;2023-02-24T00:31:52;8.40;99.50
14397;DHT22;50653;47.810;13.022;2023-02-24T00:34:29;8.50;99.20
14397;DHT22;50653;47.810;13.022;2023-02-24T00:36:56;8.60;98.90
14397;DHT22;50653;47.810;13.022;2023-02-24T00:39:21;8.50;98.90
14397;DHT22;50653;47.810;13.022;2023-02-24T00:41:53;8.50;99.00
14397;DHT22;50653;47.810;13.022;2023-02-24T00:44:22;8.50;98.70
14397;DHT22;50653;47.810;13.022;2023-02-24T00:46:48;8.30;99.00
14397;DHT22;50653;47.810;13.022;2023-02-24T00:49:17;8.10;99.10
14397;DHT22;50653;47.810;13.022;2023-02-24T00:51:47;8.30;99.10
14397;DHT22;50653;47.810;13.022;2023-02-24T00:54:14;8.20;99.00
14397;DHT22;50653;47.810;13.022;2023-02-24T00:56:45;8.10;99.30
14397;DHT22;50653;47.810;13.022;2023-02-24T00:59:13;8.20;99.20
14397;DHT22;50653;47.810;13.022;2023-02-24T01:01:39;8.20;98.90
14397;DHT22;50653;47.810;13.022;2023-02-24T01:04:06;8.20;99.00
14397;DHT22;50653;47.810;13.022;2023-02-24T01:06:41;8.10;99.00
14397;DHT22;50653;47.810;13.022;2023-02-24T01:09:13;8.10;99.10
14397;DHT22;50653;47.810;13.022;2023-02-24T01:11:40;8.10;98.90
14397;DHT22;50653;47.810;13.022;2023-02-24T01:14:27;8.10;98.90
14397;DHT22;50653;47.810;13.022;2023-02-24T01:16:54;8.10;98.90
14397;DHT22;50653;47.810;13.022;2023-02-24T01:19:23;7.90;99.20
14397;DHT22;50653;47.810;13.022;2023-02-24T01:21:49;7.90;99.50
14397;DHT22;50653;47.810;13.022;2023-02-24T01:24:23;7.90;99.30
14397;DHT22;50653;47.810;13.022;2023-02-24T01:26:49;7.90;99.40
14397;DHT22;50653;47.810;13.022;2023-02-24T01:29:15;8.00;99.40
14397;DHT22;50653;47.810;13.022;2023-02-24T01:31:41;8.00;99.70
14397;DHT22;50653;47.810;13.022;2023-02-24T01:34:09;8.00;99.20
14397;DHT22;50653;47.810;13.022;2023-02-24T01:36:36;7.90;99.30
14397;DHT22;50653;47.810;13.022;2023-02-24T01:39:02;7.90;99.10
14397;DHT22;50653;47.810;13.022;2023-02-24T01:41:31;7.90;99.10
14397;DHT22;50653;47.810;13.022;2023-02-24T01:46:47;7.60;99.30
14397;DHT22;50653;47.810;13.022;2023-02-24T01:49:32;7.60;99.50
14397;DHT22;50653;47.810;13.022;2023-02-24T01:52:08;7.40;99.90
14397;DHT22;50653;47.810;13.022;2023-02-24T01:54:53;7.60;99.90
14397;DHT22;50653;47.810;13.022;2023-02-24T01:57:23;7.50;99.90
14397;DHT22;50653;47.810;13.022;2023-02-24T01:59:51;7.50;99.90
14397;DHT22;50653;47.810;13.022;2023-02-24T02:02:20;7.50;99.90
14397;DHT22;50653;47.810;13.022;2023-02-24T02:04:51;7.60;99.90
14397;DHT22;50653;47.810;13.022;2023-02-24T02:07:20;7.60;99.90
14397;DHT22;50653;47.810;13.022;2023-02-24T02:09:47;7.50;99.90
14397;DHT22;50653;47.810;13.022;2023-02-24T02:12:13;7.60;99.90
14397;DHT22;50653;47.810;13.022;2023-02-24T02:14:47;7.70;99.90
14397;DHT22;50653;47.810;13.022;2023-02-24T02:25:29;7.60;99.90
14397;DHT22;50653;47.810;13.022;2023-02-24T02:39:33;7.40;99.90
14397;DHT22;50653;47.810;13.022;2023-02-24T02:42:20;7.40;99.90
14397;DHT22;50653;47.810;13.022;2023-02-24T02:45:03;7.40;99.90
14397;DHT22;50653;47.810;13.022;2023-02-24T02:48:04;7.50;99.90
14397;DHT22;50653;47.810;13.022;2023-02-24T02:53:21;7.30;99.90
14397;DHT22;50653;47.810;13.022;2023-02-24T02:55:55;7.40;99.90
14397;DHT22;50653;47.810;13.022;2023-02-24T02:58:26;7.40;99.90
14397;DHT22;50653;47.810;13.022;2023-02-24T03:00:57;7.50;99.90
14397;DHT22;50653;47.810;13.022;2023-02-24T03:03:40;7.40;99.90
14397;DHT22;50653;47.810;13.022;2023-02-24T03:06:15;7.40;99.90
14397;DHT22;50653;47.810;13.022;2023-02-24T03:08:48;7.50;99.90
14397;DHT22;50653;47.810;13.022;2023-02-24T03:11:17;7.50;99.90
14397;DHT22;50653;47.810;13.022;2023-02-24T03:13:47;7.60;99.90
14397;DHT22;50653;47.810;13.022;2023-02-24T03:16:16;7.50;99.90
14397;DHT22;50653;47.810;13.022;2023-02-24T03:18:47;7.70;99.90
14397;DHT22;50653;47.810;13.022;2023-02-24T03:21:36;7.70;99.90
14397;DHT22;50653;47.810;13.022;2023-02-24T03:24:03;7.70;99.90
14397;DHT22;50653;47.810;13.022;2023-02-24T03:26:40;7.60;99.90
14397;DHT22;50653;47.810;13.022;2023-02-24T03:29:16;7.60;99.90
14397;DHT22;50653;47.810;13.022;2023-02-24T03:32:01;7.50;99.90
14397;DHT22;50653;47.810;13.022;2023-02-24T03:37:11;7.50;99.90
14397;DHT22;50653;47.810;13.022;2023-02-24T03:39:37;7.60;99.90
14397;DHT22;50653;47.810;13.022;2023-02-24T03:42:17;7.60;99.90
14397;DHT22;50653;47.810;13.022;2023-02-24T03:44:44;7.60;99.90
14397;DHT22;50653;47.810;13.022;2023-02-24T03:47:11;7.60;99.90
14397;DHT22;50653;47.810;13.022;2023-02-24T03:49:37;7.60;99.80
14397;DHT22;50653;47.810;13.022;2023-02-24T03:59:57;7.40;99.90
14397;DHT22;50653;47.810;13.022;2023-02-24T04:02:42;7.50;99.90
14397;DHT22;50653;47.810;13.022;2023-02-24T04:05:20;7.50;99.80
14397;DHT22;50653;47.810;13.022;2023-02-24T04:08:06;7.60;99.60
14397;DHT22;50653;47.810;13.022;2023-02-24T04:10:37;7.50;99.50
14397;DHT22;50653;47.810;13.022;2023-02-24T04:15:56;7.50;99.50
14397;DHT22;50653;47.810;13.022;2023-02-24T04:18:28;7.30;99.50
14397;DHT22;50653;47.810;13.022;2023-02-24T04:20:58;7.40;99.40
14397;DHT22;50653;47.810;13.022;2023-02-24T04:23:45;7.40;99.50
14397;DHT22;50653;47.810;13.022;2023-02-24T04:26:15;7.40;99.60
14397;DHT22;50653;47.810;13.022;2023-02-24T04:28:43;7.50;99.40
14397;DHT22;50653;47.810;13.022;2023-02-24T04:31:13;7.50;99.30
14397;DHT22;50653;47.810;13.022;2023-02-24T04:33:43;7.40;99.20
14397;DHT22;50653;47.810;13.022;2023-02-24T04:36:09;7.50;99.00
14397;DHT22;50653;47.810;13.022;2023-02-24T04:38:38;7.50;99.20
14397;DHT22;50653;47.810;13.022;2023-02-24T04:41:04;7.50;98.80
14397;DHT22;50653;47.810;13.022;2023-02-24T04:43:29;7.50;99.10
14397;DHT22;50653;47.810;13.022;2023-02-24T04:45:55;7.60;99.00
14397;DHT22;50653;47.810;13.022;2023-02-24T04:48:21;7.70;98.70
14397;DHT22;50653;47.810;13.022;2023-02-24T04:50:46;7.70;98.20
14397;DHT22;50653;47.810;13.022;2023-02-24T04:53:19;7.60;98.60
14397;DHT22;50653;47.810;13.022;2023-02-24T04:55:51;7.60;98.40
14397;DHT22;50653;47.810;13.022;2023-02-24T04:58:20;7.40;98.70
14397;DHT22;50653;47.810;13.022;2023-02-24T05:00:47;7.40;99.00
14397;DHT22;50653;47.810;13.022;2023-02-24T05:03:14;7.20;99.20
14397;DHT22;50653;47.810;13.022;2023-02-24T05:05:48;7.20;99.20
14397;DHT22;50653;47.810;13.022;2023-02-24T05:08:16;7.10;99.60
14397;DHT22;50653;47.810;13.022;2023-02-24T05:10:44;7.20;99.80
14397;DHT22;50653;47.810;13.022;2023-02-24T05:13:25;7.10;99.80
14397;DHT22;50653;47.810;13.022;2023-02-24T05:15:54;7.10;99.80
14397;DHT22;50653;47.810;13.022;2023-02-24T05:18:20;7.00;99.90
14397;DHT22;50653;47.810;13.022;2023-02-24T05:20:52;7.10;99.70
14397;DHT22;50653;47.810;13.022;2023-02-24T05:23:42;7.10;99.60
14397;DHT22;50653;47.810;13.022;2023-02-24T05:26:16;7.00;99.80
14397;DHT22;50653;47.810;13.022;2023-02-24T05:28:43;7.10;99.90
14397;DHT22;50653;47.810;13.022;2023-02-24T05:31:16;7.10;99.70
14397;DHT22;50653;47.810;13.022;2023-02-24T05:33:44;7.20;99.30
14397;DHT22;50653;47.810;13.022;2023-02-24T05:36:13;7.20;99.10
14397;DHT22;50653;47.810;13.022;2023-02-24T05:38:43;7.10;99.10
14397;DHT22;50653;47.810;13.022;2023-02-24T05:41:11;7.10;99.30
14397;DHT22;50653;47.810;13.022;2023-02-24T05:43:45;7.00;99.70
14397;DHT22;50653;47.810;13.022;2023-02-24T05:46:18;6.90;99.50
14397;DHT22;50653;47.810;13.022;2023-02-24T05:48:45;7.00;99.80
14397;DHT22;50653;47.810;13.022;2023-02-24T05:51:16;7.10;99.70
14397;DHT22;50653;47.810;13.022;2023-02-24T05:53:41;7.20;99.30
14397;DHT22;50653;47.810;13.022;2023-02-24T05:56:08;7.20;99.20
14397;DHT22;50653;47.810;13.022;2023-02-24T05:58:34;7.20;99.30
14397;DHT22;50653;47.810;13.022;2023-02-24T06:01:09;7.10;99.30
14397;DHT22;50653;47.810;13.022;2023-02-24T06:03:43;7.30;99.40
14397;DHT22;50653;47.810;13.022;2023-02-24T06:06:14;7.40;99.10
14397;DHT22;50653;47.810;13.022;2023-02-24T06:08:40;7.40;99.00
14397;DHT22;50653;47.810;13.022;2023-02-24T06:11:15;7.40;98.90
14397;DHT22;50653;47.810;13.022;2023-02-24T06:13:43;7.30;98.90
14397;DHT22;50653;47.810;13.022;2023-02-24T06:16:14;7.40;98.80
14397;DHT22;50653;47.810;13.022;2023-02-24T06:18:41;7.40;98.70
14397;DHT22;50653;47.810;13.022;2023-02-24T06:21:07;7.30;98.70
14397;DHT22;50653;47.810;13.022;2023-02-24T06:23:33;7.40;99.10
14397;DHT22;50653;47.810;13.022;2023-02-24T06:26:03;7.20;99.20
14397;DHT22;50653;47.810;13.022;2023-02-24T06:28:30;7.10;99.30
14397;DHT22;50653;47.810;13.022;2023-02-24T06:30:55;7.10;99.60
14397;DHT22;50653;47.810;13.022;2023-02-24T06:33:22;7.30;99.40
14397;DHT22;50653;47.810;13.022;2023-02-24T06:35:51;7.30;99.30
14397;DHT22;50653;47.810;13.022;2023-02-24T06:38:17;7.30;99.60
14397;DHT22;50653;47.810;13.022;2023-02-24T06:40:43;7.40;99.30
14397;DHT22;50653;47.810;13.022;2023-02-24T06:43:09;7.50;98.90
14397;DHT22;50653;47.810;13.022;2023-02-24T06:45:35;7.40;99.40
14397;DHT22;50653;47.810;13.022;2023-02-24T06:48:01;7.40;99.10
14397;DHT22;50653;47.810;13.022;2023-02-24T06:50:27;7.50;99.20
14397;DHT22;50653;47.810;13.022;2023-02-24T06:52:56;7.60;98.80
14397;DHT22;50653;47.810;13.022;2023-02-24T06:55:26;7.70;98.40
14397;DHT22;50653;47.810;13.022;2023-02-24T07:00:23;7.80;98.20
14397;DHT22;50653;47.810;13.022;2023-02-24T07:02:52;7.70;98.20
14397;DHT22;50653;47.810;13.022;2023-02-24T07:05:18;7.60;98.10
14397;DHT22;50653;47.810;13.022;2023-02-24T07:07:43;7.70;98.10
14397;DHT22;50653;47.810;13.022;2023-02-24T07:10:13;7.80;98.00
14397;DHT22;50653;47.810;13.022;2023-02-24T07:12:40;7.80;97.90
14397;DHT22;50653;47.810;13.022;2023-02-24T07:15:09;7.80;97.90
14397;DHT22;50653;47.810;13.022;2023-02-24T07:17:35;7.80;97.90
14397;DHT22;50653;47.810;13.022;2023-02-24T07:20:01;7.80;97.90
14397;DHT22;50653;47.810;13.022;2023-02-24T07:22:36;7.80;97.90
14397;DHT22;50653;47.810;13.022;2023-02-24T07:25:03;7.90;97.60
14397;DHT22;50653;47.810;13.022;2023-02-24T07:27:29;7.90;97.40
14397;DHT22;50653;47.810;13.022;2023-02-24T07:29:55;8.00;97.20
14397;DHT22;50653;47.810;13.022;2023-02-24T07:32:21;8.00;97.10
14397;DHT22;50653;47.810;13.022;2023-02-24T07:34:47;7.90;97.10
14397;DHT22;50653;47.810;13.022;2023-02-24T07:37:13;8.00;97.10
14397;DHT22;50653;47.810;13.022;2023-02-24T07:39:39;8.00;96.80
14397;DHT22;50653;47.810;13.022;2023-02-24T07:42:09;8.00;96.60
14397;DHT22;50653;47.810;13.022;2023-02-24T07:44:42;8.00;96.60
14397;DHT22;50653;47.810;13.022;2023-02-24T07:47:13;8.00;96.50
14397;DHT22;50653;47.810;13.022;2023-02-24T07:49:40;8.00;96.30
14397;DHT22;50653;47.810;13.022;2023-02-24T07:52:05;8.00;96.20
14397;DHT22;50653;47.810;13.022;2023-02-24T07:54:32;8.10;96.20
14397;DHT22;50653;47.810;13.022;2023-02-24T07:56:58;8.10;95.90
14397;DHT22;50653;47.810;13.022;2023-02-24T07:59:27;8.10;95.80
14397;DHT22;50653;47.810;13.022;2023-02-24T08:01:54;8.10;95.80
14397;DHT22;50653;47.810;13.022;2023-02-24T08:04:28;8.10;95.70
14397;DHT22;50653;47.810;13.022;2023-02-24T08:06:55;8.20;95.80
14397;DHT22;50653;47.810;13.022;2023-02-24T08:09:28;8.20;95.60
14397;DHT22;50653;47.810;13.022;2023-02-24T08:12:10;8.20;95.50
14397;DHT22;50653;47.810;13.022;2023-02-24T08:14:38;8.30;95.40
14397;DHT22;50653;47.810;13.022;2023-02-24T08:17:10;8.30;95.30
14397;DHT22;50653;47.810;13.022;2023-02-24T08:19:36;8.30;95.10
14397;DHT22;50653;47.810;13.022;2023-02-24T08:22:07;8.30;95.00
14397;DHT22;50653;47.810;13.022;2023-02-24T08:27:18;8.40;94.80
14397;DHT22;50653;47.810;13.022;2023-02-24T08:29:50;8.40;94.70
14397;DHT22;50653;47.810;13.022;2023-02-24T08:32:40;8.50;94.50
14397;DHT22;50653;47.810;13.022;2023-02-24T08:35:13;8.50;94.70
14397;DHT22;50653;47.810;13.022;2023-02-24T08:37:41;8.50;94.50
14397;DHT22;50653;47.810;13.022;2023-02-24T08:40:14;8.50;94.30
14397;DHT22;50653;47.810;13.022;2023-02-24T08:42:59;8.50;94.30
14397;DHT22;50653;47.810;13.022;2023-02-24T08:45:34;8.40;94.30
14397;DHT22;50653;47.810;13.022;2023-02-24T08:48:03;8.50;94.20
14397;DHT22;50653;47.810;13.022;2023-02-24T08:50:43;8.50;94.10
14397;DHT22;50653;47.810;13.022;2023-02-24T08:53:11;8.60;94.20
14397;DHT22;50653;47.810;13.022;2023-02-24T08:55:44;8.70;94.10
14397;DHT22;50653;47.810;13.022;2023-02-24T08:58:10;8.70;93.90
14397;DHT22;50653;47.810;13.022;2023-02-24T09:00:43;8.70;93.60
14397;DHT22;50653;47.810;13.022;2023-02-24T09:03:20;8.80;93.50
14397;DHT22;50653;47.810;13.022;2023-02-24T09:06:06;8.90;93.40
14397;DHT22;50653;47.810;13.022;2023-02-24T09:08:35;9.00;93.30
14397;DHT22;50653;47.810;13.022;2023-02-24T09:11:08;9.00;93.00
14397;DHT22;50653;47.810;13.022;2023-02-24T09:13:38;9.10;93.00
14397;DHT22;50653;47.810;13.022;2023-02-24T09:16:17;9.10;93.00
14397;DHT22;50653;47.810;13.022;2023-02-24T09:18:43;9.20;92.70
14397;DHT22;50653;47.810;13.022;2023-02-24T09:21:10;9.30;92.30
14397;DHT22;50653;47.810;13.022;2023-02-24T09:24:16;9.30;92.00
14397;DHT22;50653;47.810;13.022;2023-02-24T09:26:52;9.30;91.80
14397;DHT22;50653;47.810;13.022;2023-02-24T09:29:26;9.40;91.80
14397;DHT22;50653;47.810;13.022;2023-02-24T09:32:05;9.50;91.60
14397;DHT22;50653;47.810;13.022;2023-02-24T09:34:36;9.60;91.70
14397;DHT22;50653;47.810;13.022;2023-02-24T09:37:03;9.60;91.40
14397;DHT22;50653;47.810;13.022;2023-02-24T09:39:33;9.70;91.20
14397;DHT22;50653;47.810;13.022;2023-02-24T09:42:20;9.80;91.10
14397;DHT22;50653;47.810;13.022;2023-02-24T09:44:49;10.00;90.40
14397;DHT22;50653;47.810;13.022;2023-02-24T09:50:16;10.20;89.30
14397;DHT22;50653;47.810;13.022;2023-02-24T09:52:42;10.20;88.80
14397;DHT22;50653;47.810;13.022;2023-02-24T09:55:26;10.30;88.60
14397;DHT22;50653;47.810;13.022;2023-02-24T09:58:22;10.40;88.20
14397;DHT22;50653;47.810;13.022;2023-02-24T10:01:00;10.50;86.90
14397;DHT22;50653;47.810;13.022;2023-02-24T10:06:27;10.50;86.10
14397;DHT22;50653;47.810;13.022;2023-02-24T10:11:47;10.60;85.10
14397;DHT22;50653;47.810;13.022;2023-02-24T10:16:50;10.60;86.30
14397;DHT22;50653;47.810;13.022;2023-02-24T10:19:38;10.70;86.70
14397;DHT22;50653;47.810;13.022;2023-02-24T10:33:19;10.80;83.90
14397;DHT22;50653;47.810;13.022;2023-02-24T10:35:45;10.80;83.60
14397;DHT22;50653;47.810;13.022;2023-02-24T10:38:11;10.90;84.30
14397;DHT22;50653;47.810;13.022;2023-02-24T10:40:53;10.90;83.00
14397;DHT22;50653;47.810;13.022;2023-02-24T10:43:24;10.90;83.60
14397;DHT22;50653;47.810;13.022;2023-02-24T10:45:59;10.90;84.20
14397;DHT22;50653;47.810;13.022;2023-02-24T10:48:33;11.00;83.40
14397;DHT22;50653;47.810;13.022;2023-02-24T10:51:15;11.00;83.10
14397;DHT22;50653;47.810;13.022;2023-02-24T10:53:49;11.00;82.70
14397;DHT22;50653;47.810;13.022;2023-02-24T10:56:41;11.10;83.00
14397;DHT22;50653;47.810;13.022;2023-02-24T10:59:12;11.10;83.10
14397;DHT22;50653;47.810;13.022;2023-02-24T11:01:52;11.10;83.20
14397;DHT22;50653;47.810;13.022;2023-02-24T11:04:33;11.10;82.90
14397;DHT22;50653;47.810;13.022;2023-02-24T11:07:19;11.20;81.60
14397;DHT22;50653;47.810;13.022;2023-02-24T11:10:14;11.20;81.20
14397;DHT22;50653;47.810;13.022;2023-02-24T11:12:44;11.30;80.20
14397;DHT22;50653;47.810;13.022;2023-02-24T11:15:34;11.30;79.80
14397;DHT22;50653;47.810;13.022;2023-02-24T11:18:23;11.20;80.90
14397;DHT22;50653;47.810;13.022;2023-02-24T11:21:04;11.30;80.10
14397;DHT22;50653;47.810;13.022;2023-02-24T11:23:41;11.40;79.80
14397;DHT22;50653;47.810;13.022;2023-02-24T11:26:20;11.40;80.10
14397;DHT22;50653;47.810;13.022;2023-02-24T11:32:02;11.40;80.70
14397;DHT22;50653;47.810;13.022;2023-02-24T11:34:56;11.50;80.70
14397;DHT22;50653;47.810;13.022;2023-02-24T11:37:28;11.50;81.10
14397;DHT22;50653;47.810;13.022;2023-02-24T11:40:06;11.60;79.80
14397;DHT22;50653;47.810;13.022;2023-02-24T11:42:41;11.70;79.00
14397;DHT22;50653;47.810;13.022;2023-02-24T11:48:20;11.70;80.10
14397;DHT22;50653;47.810;13.022;2023-02-24T11:51:00;11.90;80.50
14397;DHT22;50653;47.810;13.022;2023-02-24T12:01:35;11.80;78.80
14397;DHT22;50653;47.810;13.022;2023-02-24T12:04:25;11.80;80.30
14397;DHT22;50653;47.810;13.022;2023-02-24T12:07:06;11.90;81.10
14397;DHT22;50653;47.810;13.022;2023-02-24T12:10:04;11.80;80.20
14397;DHT22;50653;47.810;13.022;2023-02-24T12:20:29;12.00;80.00
14397;DHT22;50653;47.810;13.022;2023-02-24T12:23:08;11.90;80.00
14397;DHT22;50653;47.810;13.022;2023-02-24T12:28:37;12.00;80.40
14397;DHT22;50653;47.810;13.022;2023-02-24T12:31:19;12.00;81.10
14397;DHT22;50653;47.810;13.022;2023-02-24T12:36:40;12.10;81.30
14397;DHT22;50653;47.810;13.022;2023-02-24T12:39:28;12.10;81.00
14397;DHT22;50653;47.810;13.022;2023-02-24T12:47:15;12.10;81.90
14397;DHT22;50653;47.810;13.022;2023-02-24T12:52:42;12.10;81.30
14397;DHT22;50653;47.810;13.022;2023-02-24T12:55:22;12.10;81.90
14397;DHT22;50653;47.810;13.022;2023-02-24T12:58:10;12.10;82.40
14397;DHT22;50653;47.810;13.022;2023-02-24T13:06:24;12.00;81.90
14397;DHT22;50653;47.810;13.022;2023-02-24T13:09:06;12.10;82.40
14397;DHT22;50653;47.810;13.022;2023-02-24T13:11:40;12.10;82.50
14397;DHT22;50653;47.810;13.022;2023-02-24T13:14:26;12.20;82.30
14397;DHT22;50653;47.810;13.022;2023-02-24T13:17:03;12.10;82.50
14397;DHT22;50653;47.810;13.022;2023-02-24T13:19:30;12.10;82.50
14397;DHT22;50653;47.810;13.022;2023-02-24T13:27:35;12.10;83.10
14397;DHT22;50653;47.810;13.022;2023-02-24T13:33:22;12.10;83.20
14397;DHT22;50653;47.810;13.022;2023-02-24T13:38:37;12.10;82.50
14397;DHT22;50653;47.810;13.022;2023-02-24T13:41:33;12.00;83.70
14397;DHT22;50653;47.810;13.022;2023-02-24T13:44:02;12.10;83.30
14397;DHT22;50653;47.810;13.022;2023-02-24T13:52:27;12.10;83.10
14397;DHT22;50653;47.810;13.022;2023-02-24T13:57:58;12.10;84.00
14397;DHT22;50653;47.810;13.022;2023-02-24T14:00:41;12.10;83.10
14397;DHT22;50653;47.810;13.022;2023-02-24T14:03:19;12.10;83.10
14397;DHT22;50653;47.810;13.022;2023-02-24T14:05:46;12.10;82.90
14397;DHT22;50653;47.810;13.022;2023-02-24T14:08:46;12.10;82.90
14397;DHT22;50653;47.810;13.022;2023-02-24T14:11:20;12.10;83.00
14397;DHT22;50653;47.810;13.022;2023-02-24T14:13:55;12.10;82.90
14397;DHT22;50653;47.810;13.022;2023-02-24T14:16:31;12.10;82.80
14397;DHT22;50653;47.810;13.022;2023-02-24T14:19:12;12.10;83.20
14397;DHT22;50653;47.810;13.022;2023-02-24T14:21:53;12.10;83.30
14397;DHT22;50653;47.810;13.022;2023-02-24T14:24:21;12.10;83.70
14397;DHT22;50653;47.810;13.022;2023-02-24T14:26:52;12.10;83.50
14397;DHT22;50653;47.810;13.022;2023-02-24T14:32:59;12.10;83.80
14397;DHT22;50653;47.810;13.022;2023-02-24T14:35:40;12.10;83.60
14397;DHT22;50653;47.810;13.022;2023-02-24T14:38:16;12.10;83.80
14397;DHT22;50653;47.810;13.022;2023-02-24T14:40:51;12.20;83.60
14397;DHT22;50653;47.810;13.022;2023-02-24T14:43:16;12.10;83.60
14397;DHT22;50653;47.810;13.022;2023-02-24T14:45:48;12.10;84.50
14397;DHT22;50653;47.810;13.022;2023-02-24T14:50:52;12.00;83.90
14397;DHT22;50653;47.810;13.022;2023-02-24T14:53:21;12.10;83.80
14397;DHT22;50653;47.810;13.022;2023-02-24T14:55:50;12.00;83.50
14397;DHT22;50653;47.810;13.022;2023-02-24T14:58:28;12.00;83.80
14397;DHT22;50653;47.810;13.022;2023-02-24T15:01:18;12.00;84.10
14397;DHT22;50653;47.810;13.022;2023-02-24T15:03:48;12.00;84.30
14397;DHT22;50653;47.810;13.022;2023-02-24T15:06:27;11.90;84.50
14397;DHT22;50653;47.810;13.022;2023-02-24T15:09:00;11.90;84.80
14397;DHT22;50653;47.810;13.022;2023-02-24T15:11:29;12.00;84.80
14397;DHT22;50653;47.810;13.022;2023-02-24T15:14:04;12.00;85.10
14397;DHT22;50653;47.810;13.022;2023-02-24T15:16:40;12.00;85.40
14397;DHT22;50653;47.810;13.022;2023-02-24T15:19:24;12.00;85.60
14397;DHT22;50653;47.810;13.022;2023-02-24T15:21:53;11.90;85.60
14397;DHT22;50653;47.810;13.022;2023-02-24T15:24:31;11.90;85.90
14397;DHT22;50653;47.810;13.022;2023-02-24T15:27:15;11.90;86.80
14397;DHT22;50653;47.810;13.022;2023-02-24T15:29:43;11.90;85.80
14397;DHT22;50653;47.810;13.022;2023-02-24T15:32:18;11.90;86.20
14397;DHT22;50653;47.810;13.022;2023-02-24T15:34:46;11.90;86.50
14397;DHT22;50653;47.810;13.022;2023-02-24T15:37:25;11.90;86.50
14397;DHT22;50653;47.810;13.022;2023-02-24T15:42:55;11.80;87.10
14397;DHT22;50653;47.810;13.022;2023-02-24T15:45:22;11.90;87.20
14397;DHT22;50653;47.810;13.022;2023-02-24T15:47:52;11.90;87.30
14397;DHT22;50653;47.810;13.022;2023-02-24T15:50:19;11.80;88.00
14397;DHT22;50653;47.810;13.022;2023-02-24T15:52:45;11.80;88.30
14397;DHT22;50653;47.810;13.022;2023-02-24T15:55:15;11.80;88.40
14397;DHT22;50653;47.810;13.022;2023-02-24T15:57:45;11.80;88.50
14397;DHT22;50653;47.810;13.022;2023-02-24T16:00:16;11.80;88.20
14397;DHT22;50653;47.810;13.022;2023-02-24T16:02:43;11.70;88.60
14397;DHT22;50653;47.810;13.022;2023-02-24T16:05:12;11.70;88.60
14397;DHT22;50653;47.810;13.022;2023-02-24T16:07:38;11.70;88.70
14397;DHT22;50653;47.810;13.022;2023-02-24T16:10:05;11.70;89.10
14397;DHT22;50653;47.810;13.022;2023-02-24T16:12:36;11.70;88.90
14397;DHT22;50653;47.810;13.022;2023-02-24T16:15:13;11.70;88.20
14397;DHT22;50653;47.810;13.022;2023-02-24T16:17:41;11.70;88.70
14397;DHT22;50653;47.810;13.022;2023-02-24T16:20:12;11.70;88.90
14397;DHT22;50653;47.810;13.022;2023-02-24T16:22:38;11.70;89.00
14397;DHT22;50653;47.810;13.022;2023-02-24T16:25:05;11.60;89.50
14397;DHT22;50653;47.810;13.022;2023-02-24T16:27:31;11.60;89.90
14397;DHT22;50653;47.810;13.022;2023-02-24T16:29:58;11.60;90.00
14397;DHT22;50653;47.810;13.022;2023-02-24T16:32:24;11.60;90.00
14397;DHT22;50653;47.810;13.022;2023-02-24T16:34:53;11.60;90.10
14397;DHT22;50653;47.810;13.022;2023-02-24T16:37:45;11.60;90.60
14397;DHT22;50653;47.810;13.022;2023-02-24T16:40:18;11.50;90.10
14397;DHT22;50653;47.810;13.022;2023-02-24T16:42:45;11.50;90.00
14397;DHT22;50653;47.810;13.022;2023-02-24T16:45:11;11.50;90.00
14397;DHT22;50653;47.810;13.022;2023-02-24T16:47:40;11.50;90.10
14397;DHT22;50653;47.810;13.022;2023-02-24T16:50:11;11.50;90.20
14397;DHT22;50653;47.810;13.022;2023-02-24T16:52:43;11.50;90.20
14397;DHT22;50653;47.810;13.022;2023-02-24T16:55:13;11.50;90.20
14397;DHT22;50653;47.810;13.022;2023-02-24T16:57:40;11.50;90.20
14397;DHT22;50653;47.810;13.022;2023-02-24T17:00:08;11.50;90.20
14397;DHT22;50653;47.810;13.022;2023-02-24T17:02:39;11.40;90.10
14397;DHT22;50653;47.810;13.022;2023-02-24T17:05:33;11.40;90.20
14397;DHT22;50653;47.810;13.022;2023-02-24T17:07:59;11.30;90.20
14397;DHT22;50653;47.810;13.022;2023-02-24T17:10:30;11.30;90.20
14397;DHT22;50653;47.810;13.022;2023-02-24T17:12:57;11.30;90.10
14397;DHT22;50653;47.810;13.022;2023-02-24T17:15:24;11.20;90.00
14397;DHT22;50653;47.810;13.022;2023-02-24T17:17:50;11.20;90.00
14397;DHT22;50653;47.810;13.022;2023-02-24T17:20:17;11.30;90.30
14397;DHT22;50653;47.810;13.022;2023-02-24T17:22:44;11.30;90.40
14397;DHT22;50653;47.810;13.022;2023-02-24T17:25:24;11.30;90.30
14397;DHT22;50653;47.810;13.022;2023-02-24T17:27:51;11.30;90.30
14397;DHT22;50653;47.810;13.022;2023-02-24T17:30:20;11.20;90.40
14397;DHT22;50653;47.810;13.022;2023-02-24T17:32:46;11.20;90.00
14397;DHT22;50653;47.810;13.022;2023-02-24T17:35:12;11.30;90.00
14397;DHT22;50653;47.810;13.022;2023-02-24T17:37:37;11.30;89.70
14397;DHT22;50653;47.810;13.022;2023-02-24T17:40:04;11.30;89.40
14397;DHT22;50653;47.810;13.022;2023-02-24T17:42:30;11.20;89.50
14397;DHT22;50653;47.810;13.022;2023-02-24T17:44:56;11.20;89.60
14397;DHT22;50653;47.810;13.022;2023-02-24T17:47:21;11.20;89.40
14397;DHT22;50653;47.810;13.022;2023-02-24T17:49:47;11.20;89.40
14397;DHT22;50653;47.810;13.022;2023-02-24T17:52:13;11.20;89.40
14397;DHT22;50653;47.810;13.022;2023-02-24T17:54:38;11.20;89.40
14397;DHT22;50653;47.810;13.022;2023-02-24T17:57:04;11.30;90.20
14397;DHT22;50653;47.810;13.022;2023-02-24T17:59:30;11.30;89.60
14397;DHT22;50653;47.810;13.022;2023-02-24T18:01:55;11.20;89.70
14397;DHT22;50653;47.810;13.022;2023-02-24T18:04:21;11.10;89.80
14397;DHT22;50653;47.810;13.022;2023-02-24T18:06:47;11.10;90.00
14397;DHT22;50653;47.810;13.022;2023-02-24T18:09:12;11.20;90.10
14397;DHT22;50653;47.810;13.022;2023-02-24T18:11:38;11.20;90.20
14397;DHT22;50653;47.810;13.022;2023-02-24T18:14:04;11.20;90.20